Time;durP1;ratioP1;P1;durP2;ratioP2;P2;SDS_P1;SDS_P2;PMS_P1;PMS_P2;Temp;Humidity;BMP_temperature;BMP_pressure;BME280_temperature;BME280_humidity;BME280_pressure;Samples;Min_cycle;Max_cycle;Signal;HPM_P1;HPM_P2
2022/08/09 00:00:09;;;;;;;10.48;6.85;;;;;;;20.28;65.85;97844.66;10278234;28;20069;-56
2022/08/09 00:05:08;;;;;;;11.48;6.20;;;;;;;20.16;66.46;97838.09;10292416;28;20058;-56
2022/08/09 00:10:08;;;;;;;9.70;6.47;;;;;;;19.85;67.39;97839.25;10293225;28;20438;-56
2022/08/09 00:15:07;;;;;;;9.70;6.75;;;;;;;19.73;67.30;97837.06;10291526;28;20065;-56
2022/08/09 00:20:07;;;;;;;6.97;5.68;;;;;;;19.55;68.29;97837.72;10293040;28;20061;-56
2022/08/09 00:25:07;;;;;;;8.35;6.13;;;;;;;19.51;69.16;97841.34;10292743;28;20080;-56
2022/08/09 00:30:06;;;;;;;7.95;6.05;;;;;;;19.57;69.19;97830.66;10289503;28;20065;-56
2022/08/09 00:35:07;;;;;;;8.02;5.90;;;;;;;19.74;68.83;97822.13;10292106;28;20503;-56
2022/08/09 00:40:07;;;;;;;7.68;5.82;;;;;;;19.87;68.52;97819.00;10285938;28;20061;-56
2022/08/09 00:45:06;;;;;;;9.55;5.93;;;;;;;19.97;68.40;97816.00;10264436;28;20073;-56
2022/08/09 00:50:06;;;;;;;10.30;6.45;;;;;;;20.01;68.52;97825.53;10255363;28;20046;-56
2022/08/09 00:55:06;;;;;;;7.97;5.82;;;;;;;19.96;69.61;97832.75;10260194;28;20541;-56
2022/08/09 01:00:09;;;;;;;9.18;6.30;;;;;;;19.79;70.89;97842.13;10254940;28;20066;-56
2022/08/09 01:05:17;;;;;;;9.85;7.13;;;;;;;19.53;71.57;97844.78;10293513;28;20057;-56
2022/08/09 01:10:33;;;;;;;10.73;7.03;;;;;;;19.37;71.82;97857.63;10293201;28;20100;-56
2022/08/09 01:15:39;;;;;;;9.77;6.60;;;;;;;19.32;72.11;97860.44;10294309;28;20065;-56
2022/08/09 01:20:53;;;;;;;10.85;7.53;;;;;;;19.28;71.91;97850.94;10295065;28;20057;-56
2022/08/09 01:26:26;;;;;;;8.90;7.03;;;;;;;19.27;72.20;97857.09;10293728;28;20065;-56
2022/08/09 01:31:27;;;;;;;11.27;7.88;;;;;;;19.21;72.39;97854.69;10295205;28;20486;-56
2022/08/09 01:36:29;;;;;;;12.20;7.90;;;;;;;19.14;72.45;97853.19;10294208;28;20073;-56
2022/08/09 01:41:31;;;;;;;14.27;8.00;;;;;;;19.10;72.67;97847.16;10256601;28;20070;-56
2022/08/09 01:46:36;;;;;;;10.32;7.15;;;;;;;19.08;73.57;97838.44;10249888;28;20093;-56
2022/08/09 01:51:37;;;;;;;9.63;7.68;;;;;;;19.03;75.46;97837.75;10288234;28;20066;-56
2022/08/09 01:56:40;;;;;;;11.68;7.88;;;;;;;19.02;76.56;97839.53;10290699;28;20053;-56
2022/08/09 02:01:42;;;;;;;10.07;7.60;;;;;;;18.99;77.55;97829.13;10288750;28;20065;-56
2022/08/09 02:12:03;;;;;;;12.43;8.95;;;;;;;18.82;80.84;97826.19;10291439;28;20058;-57
2022/08/09 02:17:03;;;;;;;10.93;8.90;;;;;;;18.82;81.88;97832.28;10287541;28;20562;-57
2022/08/09 02:22:09;;;;;;;10.27;8.02;;;;;;;18.73;83.09;97831.72;10296947;28;20057;-57
2022/08/09 02:27:11;;;;;;;13.65;8.55;;;;;;;18.64;83.44;97821.47;10295866;28;20367;-57
2022/08/09 02:32:13;;;;;;;15.13;9.68;;;;;;;18.58;83.23;97833.91;10296984;28;20073;-57
2022/08/09 02:37:15;;;;;;;11.82;9.73;;;;;;;18.52;83.18;97831.47;10294591;28;20077;-57
2022/08/09 02:42:24;;;;;;;16.02;10.02;;;;;;;18.47;83.29;97833.41;10284844;28;20061;-57
2022/08/09 02:47:24;;;;;;;12.17;9.50;;;;;;;18.40;83.57;97829.25;10295253;28;20053;-57
2022/08/09 02:52:30;;;;;;;13.95;10.07;;;;;;;18.32;83.92;97833.88;10295671;28;20323;-56
2022/08/09 02:57:31;;;;;;;14.02;8.77;;;;;;;18.31;83.91;97832.16;10296254;28;20069;-57
2022/08/09 03:02:30;;;;;;;15.23;9.77;;;;;;;18.30;84.24;97843.59;10295023;28;20065;-58
2022/08/09 03:07:30;;;;;;;12.80;9.45;;;;;;;18.16;84.69;97846.63;10294459;28;20061;-58
2022/08/09 03:12:31;;;;;;;13.45;9.63;;;;;;;18.05;84.68;97844.31;10296143;28;20080;-57
2022/08/09 03:17:31;;;;;;;13.05;11.07;;;;;;;17.92;85.37;97845.59;10295940;28;20092;-57
2022/08/09 03:22:34;;;;;;;17.02;11.20;;;;;;;17.80;86.46;97838.03;10293388;28;20069;-57
2022/08/09 03:27:34;;;;;;;14.57;11.10;;;;;;;17.72;86.97;97836.47;10295568;28;20073;-57
2022/08/09 03:32:35;;;;;;;18.95;12.00;;;;;;;17.55;88.25;97843.97;10293326;28;20077;-57
2022/08/09 03:37:34;;;;;;;14.95;11.50;;;;;;;17.44;88.99;97851.28;10287464;28;20084;-57
2022/08/09 03:42:33;;;;;;;17.33;12.02;;;;;;;17.29;89.83;97845.53;10297762;28;20053;-57
2022/08/09 03:47:32;;;;;;;16.50;12.77;;;;;;;17.28;90.61;97864.78;10275683;28;20070;-57
2022/08/09 03:52:32;;;;;;;12.88;11.02;;;;;;;17.10;91.92;97862.66;10257366;28;20482;-57
2022/08/09 03:57:31;;;;;;;15.07;11.68;;;;;;;17.05;91.84;97868.00;10256989;28;20070;-57
2022/08/09 04:02:32;;;;;;;14.68;11.38;;;;;;;16.95;92.02;97863.03;10286922;28;20501;-57
2022/08/09 04:07:31;;;;;;;17.00;12.65;;;;;;;17.01;91.99;97883.84;10294670;28;20058;-56
2022/08/09 04:12:44;;;;;;;14.85;11.98;;;;;;;17.11;91.67;97886.19;10295149;28;20040;-56
2022/08/09 04:17:43;;;;;;;16.27;11.73;;;;;;;17.19;91.09;97878.16;10295409;28;20072;-57
2022/08/09 04:22:44;;;;;;;14.75;12.43;;;;;;;17.39;91.30;97879.41;10295999;28;20058;-57
2022/08/09 04:27:43;;;;;;;15.30;12.07;;;;;;;17.50;91.21;97887.84;10294607;28;20057;-57
2022/08/09 04:32:42;;;;;;;15.65;11.27;;;;;;;17.46;91.55;97884.44;10294749;28;20467;-56
2022/08/09 04:37:41;;;;;;;13.68;11.15;;;;;;;17.56;91.04;97891.13;10284625;28;20066;-57
2022/08/09 04:42:40;;;;;;;14.48;10.05;;;;;;;17.55;90.89;97892.06;10283304;28;20069;-58
2022/08/09 04:47:39;;;;;;;15.38;11.07;;;;;;;17.67;90.64;97896.09;10274599;28;20073;-57
2022/08/09 04:52:38;;;;;;;15.75;10.75;;;;;;;17.73;90.52;97903.81;10279597;28;20121;-57
2022/08/09 04:57:37;;;;;;;12.80;10.25;;;;;;;17.77;90.26;97908.09;10286939;28;20025;-58
2022/08/09 05:02:36;;;;;;;15.65;10.23;;;;;;;17.90;89.99;97915.66;10290610;28;20080;-57
2022/08/09 05:07:36;;;;;;;13.75;10.50;;;;;;;17.98;90.13;97911.03;10270192;28;20072;-57
2022/08/09 05:12:35;;;;;;;13.05;10.68;;;;;;;18.06;89.93;97902.94;10287123;28;20061;-57
2022/08/09 05:17:33;;;;;;;16.20;10.45;;;;;;;18.26;89.25;97918.13;10286652;28;20026;-57
2022/08/09 05:22:32;;;;;;;11.73;10.05;;;;;;;18.48;89.26;97919.22;10290179;28;20113;-57
2022/08/09 05:27:31;;;;;;;17.25;10.75;;;;;;;18.75;88.39;97916.66;10287562;28;20030;-57
2022/08/09 05:32:30;;;;;;;13.65;9.88;;;;;;;19.09;87.72;97916.47;10268340;28;20541;-57
2022/08/09 05:37:30;;;;;;;17.65;10.52;;;;;;;19.32;86.07;97909.56;10289138;28;20054;-56
2022/08/09 05:42:29;;;;;;;11.38;10.05;;;;;;;19.57;83.93;97914.88;10272431;28;20085;-56
2022/08/09 05:47:28;;;;;;;13.20;9.70;;;;;;;19.78;83.20;97918.53;10264960;28;20078;-57
2022/08/09 05:52:27;;;;;;;14.50;9.80;;;;;;;19.99;82.43;97909.00;10290752;28;20057;-57
2022/08/09 05:57:26;;;;;;;13.85;8.98;;;;;;;20.11;80.60;97908.53;10295806;28;20113;-56
2022/08/09 06:02:25;;;;;;;12.93;9.10;;;;;;;20.26;80.00;97910.63;10292568;28;20029;-57
2022/08/09 06:07:24;;;;;;;12.35;9.02;;;;;;;20.40;78.89;97909.25;10277743;28;20128;-57
2022/08/09 06:12:23;;;;;;;13.68;9.30;;;;;;;20.67;78.49;97916.09;10290134;28;20032;-57
2022/08/09 06:17:22;;;;;;;11.40;8.70;;;;;;;20.81;76.83;97904.16;10275758;28;20072;-58
2022/08/09 06:22:21;;;;;;;11.80;9.35;;;;;;;21.06;77.00;97901.41;10276221;28;20022;-55
2022/08/09 06:27:20;;;;;;;13.38;9.15;;;;;;;21.36;75.49;97909.84;10293535;28;20065;-57
2022/08/09 06:32:19;;;;;;;12.68;9.35;;;;;;;21.58;74.50;97901.00;10261645;28;20029;-56
2022/08/09 06:37:18;;;;;;;10.63;8.60;;;;;;;21.83;73.99;97898.13;10291314;28;20046;-56
2022/08/09 06:42:19;;;;;;;11.48;8.60;;;;;;;22.08;73.18;97895.28;10286373;28;20065;-56
2022/08/09 06:47:18;;;;;;;10.75;8.75;;;;;;;22.31;72.10;97887.16;10269896;28;20562;-56
2022/08/09 06:52:17;;;;;;;10.18;8.77;;;;;;;22.48;70.60;97886.38;10279533;28;20527;-56
2022/08/09 06:57:16;;;;;;;11.65;8.00;;;;;;;22.64;68.81;97880.38;10289701;28;20821;-56
2022/08/09 07:02:15;;;;;;;10.27;7.88;;;;;;;22.79;68.80;97885.81;10277737;28;20053;-56
2022/08/09 07:07:14;;;;;;;11.95;7.97;;;;;;;22.98;67.80;97875.19;10287350;28;20086;-55
2022/08/09 07:12:14;;;;;;;12.60;7.78;;;;;;;23.11;65.72;97858.69;10292062;28;20582;-56
2022/08/09 07:17:14;;;;;;;8.82;7.28;;;;;;;23.23;64.12;97874.81;10286073;28;20756;-56
2022/08/09 07:22:13;;;;;;;8.40;6.47;;;;;;;23.39;62.89;97866.09;10279774;28;20066;-56
2022/08/09 07:27:12;;;;;;;9.73;6.63;;;;;;;23.62;59.37;97873.72;10276285;28;20109;-56
2022/08/09 07:32:11;;;;;;;7.68;6.22;;;;;;;23.90;58.92;97868.78;10261911;28;20475;-56
2022/08/09 07:37:10;;;;;;;9.32;6.40;;;;;;;23.92;56.39;97862.47;10258836;28;20685;-57
2022/08/09 07:42:10;;;;;;;8.27;6.90;;;;;;;24.28;57.34;97869.38;10277625;28;20487;-57
2022/08/09 07:47:09;;;;;;;9.05;6.88;;;;;;;24.25;56.27;97873.06;10266351;28;20077;-57
2022/08/09 07:52:08;;;;;;;8.15;6.18;;;;;;;24.44;55.90;97870.25;10275403;28;20030;-57
2022/08/09 07:57:07;;;;;;;9.57;6.72;;;;;;;24.71;55.83;97867.03;10267529;28;20057;-57
2022/08/09 08:02:06;;;;;;;7.50;6.00;;;;;;;24.97;54.91;97868.22;10257234;28;20484;-57
2022/08/09 08:07:06;;;;;;;10.18;6.20;;;;;;;25.19;54.34;97865.16;10265615;28;20060;-57
2022/08/09 08:12:05;;;;;;;8.20;6.18;;;;;;;25.35;51.80;97856.28;10277942;28;20065;-57
2022/08/09 08:17:04;;;;;;;8.20;6.00;;;;;;;25.36;51.49;97863.28;10286193;28;20061;-57
2022/08/09 08:22:03;;;;;;;7.03;5.82;;;;;;;25.61;51.00;97852.94;10280394;28;20108;-56
2022/08/09 08:27:02;;;;;;;8.13;6.43;;;;;;;25.87;51.62;97856.66;10287116;28;20492;-57
2022/08/09 08:32:01;;;;;;;7.38;6.25;;;;;;;26.15;50.74;97852.28;10278088;28;20497;-57
2022/08/09 08:37:01;;;;;;;11.45;7.13;;;;;;;26.34;49.69;97847.53;10269887;28;20084;-57
2022/08/09 08:42:00;;;;;;;9.88;6.05;;;;;;;26.49;48.12;97850.19;10270916;28;20064;-57
2022/08/09 08:46:59;;;;;;;8.40;5.68;;;;;;;26.51;46.81;97840.28;10267318;28;20057;-57
2022/08/09 08:51:59;;;;;;;8.65;5.55;;;;;;;26.71;47.28;97829.19;10266925;28;20121;-57
2022/08/09 08:56:58;;;;;;;10.50;5.65;;;;;;;26.94;47.29;97819.72;10257183;28;20173;-57
2022/08/09 09:01:58;;;;;;;8.07;5.80;;;;;;;27.05;45.52;97821.69;10245027;28;20157;-57
2022/08/09 09:07:01;;;;;;;8.57;5.05;;;;;;;27.20;45.58;97814.47;10266450;28;20113;-57
2022/08/09 09:12:01;;;;;;;6.22;4.85;;;;;;;27.25;44.12;97814.16;10276601;28;20086;-57
2022/08/09 09:17:01;;;;;;;7.53;5.03;;;;;;;26.95;43.73;97810.78;10252628;28;20061;-58
2022/08/09 09:22:06;;;;;;;6.63;4.90;;;;;;;27.15;44.10;97800.59;10256245;28;20113;-57
2022/08/09 09:27:08;;;;;;;6.72;4.80;;;;;;;27.44;44.68;97795.94;10257202;28;20125;-57
2022/08/09 09:32:09;;;;;;;9.05;4.80;;;;;;;27.69;43.28;97789.78;10278706;28;20573;-57
2022/08/09 09:37:08;;;;;;;12.05;5.10;;;;;;;27.93;44.08;97792.53;10276445;28;20085;-57
2022/08/09 09:42:21;;;;;;;8.63;5.00;;;;;;;28.19;41.99;97781.81;10254490;28;20133;-57
2022/08/09 09:47:20;;;;;;;6.70;4.82;;;;;;;28.43;41.96;97773.84;10286348;28;20878;-57
2022/08/09 09:52:19;;;;;;;7.70;4.85;;;;;;;28.25;37.90;97765.38;10280916;28;20597;-57
2022/08/09 09:57:23;;;;;;;7.55;4.40;;;;;;;28.22;37.39;97766.47;10286384;28;20049;-58
2022/08/09 10:02:25;;;;;;;5.72;4.25;;;;;;;28.55;38.18;97756.94;10274659;28;20069;-57
2022/08/09 10:07:25;;;;;;;5.80;4.07;;;;;;;28.80;36.29;97749.78;10290542;28;20076;-58
2022/08/09 10:12:27;;;;;;;5.88;4.30;;;;;;;28.93;35.69;97742.53;10269847;28;20062;-57
2022/08/09 10:17:34;;;;;;;7.13;4.53;;;;;;;29.06;35.86;97751.34;10275066;28;20073;-57
2022/08/09 10:22:37;;;;;;;7.60;3.95;;;;;;;29.06;34.58;97751.34;10271164;28;20069;-58
2022/08/09 10:27:36;;;;;;;6.63;3.67;;;;;;;29.01;32.73;97752.63;10281045;28;20149;-57
2022/08/09 10:32:36;;;;;;;7.65;3.88;;;;;;;29.15;34.02;97754.25;10282747;28;20073;-57
2022/08/09 10:37:36;;;;;;;8.13;3.70;;;;;;;29.38;34.07;97740.00;10263554;28;20077;-57
2022/08/09 10:42:35;;;;;;;5.93;4.10;;;;;;;29.74;32.47;97746.06;10269173;28;20058;-58
2022/08/09 10:47:42;;;;;;;5.28;3.60;;;;;;;30.18;32.03;97738.16;10269814;28;20093;-55
2022/08/09 10:53:06;;;;;;;5.97;4.13;;;;;;;30.02;30.67;97734.03;10283648;28;20058;-58
2022/08/09 10:58:05;;;;;;;5.35;3.72;;;;;;;30.01;30.10;97734.19;10276966;28;20061;-57
2022/08/09 11:03:25;;;;;;;3.95;3.50;;;;;;;30.16;30.49;97727.56;10254472;28;20037;-57
2022/08/09 11:08:41;;;;;;;4.18;3.10;;;;;;;30.04;27.33;97715.19;10293058;28;20107;-57
2022/08/09 11:13:40;;;;;;;6.82;3.33;;;;;;;29.97;28.27;97708.63;10294787;28;20069;-57
2022/08/09 11:18:45;;;;;;;8.25;3.95;;;;;;;29.78;29.28;97714.59;10266821;28;20053;-56
2022/08/09 11:24:00;;;;;;;7.40;3.30;;;;;;;29.55;29.74;97724.44;10255219;28;20057;-57
2022/08/09 11:28:59;;;;;;;5.68;3.53;;;;;;;29.76;30.67;97728.06;10275338;28;20069;-57
2022/08/09 11:34:05;;;;;;;6.22;3.83;;;;;;;29.83;28.74;97710.56;10265097;28;20046;-57
2022/08/09 11:39:05;;;;;;;6.65;3.75;;;;;;;30.04;28.44;97712.50;10277836;28;20093;-56
2022/08/09 11:44:04;;;;;;;9.30;3.97;;;;;;;30.32;28.10;97695.03;10263572;28;20076;-56
2022/08/09 11:49:03;;;;;;;4.45;3.10;;;;;;;30.61;27.30;97670.34;10273706;28;20062;-57
2022/08/09 11:54:16;;;;;;;6.07;3.13;;;;;;;30.99;26.76;97675.19;10276488;28;20530;-57
2022/08/09 11:59:26;;;;;;;5.65;3.03;;;;;;;31.24;26.07;97668.56;10267413;28;20077;-58
2022/08/09 12:04:26;;;;;;;5.47;2.97;;;;;;;31.18;25.63;97677.13;10262932;28;20069;-58
2022/08/09 12:09:27;;;;;;;8.32;2.53;;;;;;;30.86;22.47;97672.66;10263279;28;20066;-57
2022/08/09 12:14:32;;;;;;;5.88;2.60;;;;;;;30.85;23.58;97673.66;10271210;28;20570;-58
2022/08/09 12:19:31;;;;;;;3.78;2.70;;;;;;;31.00;24.00;97659.94;10265319;28;20058;-58
2022/08/09 12:24:30;;;;;;;4.13;2.63;;;;;;;31.16;23.05;97663.84;10268772;28;20081;-57
2022/08/09 12:29:31;;;;;;;7.25;3.20;;;;;;;31.03;23.39;97660.53;10279081;28;20030;-58
2022/08/09 12:34:35;;;;;;;6.82;3.10;;;;;;;30.66;23.84;97660.13;10277525;28;20069;-58
2022/08/09 12:39:34;;;;;;;4.53;2.90;;;;;;;30.58;24.55;97644.69;10273022;28;20062;-55
2022/08/09 12:44:38;;;;;;;5.72;3.25;;;;;;;30.73;24.69;97634.53;10269863;28;20073;-57
2022/08/09 12:49:38;;;;;;;4.97;3.63;;;;;;;31.13;24.58;97617.69;10266114;28;20085;-57
2022/08/09 12:54:54;;;;;;;8.40;4.15;;;;;;;31.36;25.38;97607.63;10261903;28;20065;-57
2022/08/09 13:00:10;;;;;;;5.05;3.30;;;;;;;31.23;24.16;97590.94;10266625;28;20062;-57
2022/08/09 13:05:09;;;;;;;5.97;3.35;;;;;;;31.10;22.78;97594.69;10270548;28;20078;-57
2022/08/09 13:10:08;;;;;;;4.80;3.83;;;;;;;31.44;23.06;97601.59;10253089;28;20065;-57
2022/08/09 13:15:08;;;;;;;5.53;3.70;;;;;;;31.59;21.74;97592.19;10269499;28;20045;-57
2022/08/09 13:20:08;;;;;;;7.50;3.75;;;;;;;31.59;21.06;97590.38;10251341;28;20096;-57
2022/08/09 13:25:07;;;;;;;7.32;3.97;;;;;;;31.84;22.19;97580.09;10262681;28;20073;-57
2022/08/09 13:30:15;;;;;;;4.00;3.05;;;;;;;32.10;22.38;97576.91;10277111;28;20909;-57
2022/08/09 13:35:18;;;;;;;8.48;4.00;;;;;;;31.97;22.91;97591.41;10264416;28;20081;-57
2022/08/09 13:40:17;;;;;;;4.20;3.25;;;;;;;32.10;22.21;97587.63;10264944;28;20069;-56
2022/08/09 13:45:17;;;;;;;5.65;3.53;;;;;;;32.19;22.24;97590.31;10284227;28;20069;-57
2022/08/09 13:50:20;;;;;;;5.43;3.80;;;;;;;32.10;22.58;97596.53;10291747;28;20066;-56
2022/08/09 13:55:19;;;;;;;4.93;3.60;;;;;;;31.97;23.32;97580.69;10276177;28;20069;-56
2022/08/09 14:00:19;;;;;;;5.60;3.47;;;;;;;31.88;23.25;97586.88;10263572;28;20032;-57
2022/08/09 14:05:18;;;;;;;5.10;3.40;;;;;;;32.25;22.81;97570.13;10286352;28;20057;-57
2022/08/09 14:10:17;;;;;;;7.38;3.88;;;;;;;32.29;22.90;97568.81;10265382;28;20070;-57
2022/08/09 14:15:16;;;;;;;8.27;3.60;;;;;;;32.67;23.38;97569.81;10264882;28;20049;-57
2022/08/09 14:20:15;;;;;;;6.20;3.10;;;;;;;32.23;23.52;97569.41;10255013;28;20034;-57
2022/08/09 14:25:14;;;;;;;5.07;3.47;;;;;;;31.59;24.60;97566.25;10256209;28;20030;-57
2022/08/09 14:30:13;;;;;;;6.43;3.38;;;;;;;30.86;24.24;97578.03;10285773;28;20566;-57
2022/08/09 14:35:12;;;;;;;6.13;3.67;;;;;;;30.57;24.82;97559.97;10292319;28;20077;-57
2022/08/09 14:40:11;;;;;;;7.07;3.97;;;;;;;30.50;25.08;97564.16;10293711;28;20037;-57
2022/08/09 14:45:11;;;;;;;5.78;3.78;;;;;;;30.53;25.38;97556.69;10275391;28;20066;-57
2022/08/09 14:50:10;;;;;;;6.13;3.80;;;;;;;30.47;25.45;97553.72;10264825;28;20058;-57
2022/08/09 14:55:09;;;;;;;4.60;4.07;;;;;;;30.46;25.56;97555.53;10257278;28;20045;-56
2022/08/09 15:00:08;;;;;;;7.25;4.18;;;;;;;30.30;25.31;97539.91;10265589;28;20060;-58
2022/08/09 15:05:09;;;;;;;6.82;4.13;;;;;;;30.36;25.90;97535.84;10258701;28;20065;-58
2022/08/09 15:10:08;;;;;;;4.72;4.00;;;;;;;30.60;25.41;97524.88;10259466;28;20081;-57
2022/08/09 15:15:08;;;;;;;6.88;4.40;;;;;;;30.63;25.80;97535.34;10259784;28;20069;-57
2022/08/09 15:20:07;;;;;;;6.18;4.32;;;;;;;30.82;26.13;97550.69;10283144;28;20061;-58
2022/08/09 15:25:07;;;;;;;9.75;4.45;;;;;;;30.98;28.18;97549.34;10296847;28;20077;-57
2022/08/09 15:30:06;;;;;;;6.78;4.60;;;;;;;30.93;30.18;97574.69;10297756;28;20084;-58
2022/08/09 15:35:06;;;;;;;9.98;4.75;;;;;;;30.84;31.07;97564.75;10297120;28;20131;-57
2022/08/09 15:40:17;;;;;;;9.77;4.68;;;;;;;30.62;31.66;97564.94;10295491;28;20068;-57
2022/08/09 15:45:18;;;;;;;7.35;4.43;;;;;;;30.26;31.36;97610.75;10293775;28;20081;-57
2022/08/09 15:50:17;;;;;;;8.02;4.38;;;;;;;29.65;30.11;97602.41;10283346;28;20076;-57
2022/08/09 15:55:19;;;;;;;14.18;4.80;;;;;;;28.98;31.60;97592.59;10253405;28;20058;-57
2022/08/09 16:00:20;;;;;;;10.20;3.90;;;;;;;28.41;32.40;97586.28;10261478;28;20076;-58
2022/08/09 16:05:22;;;;;;;6.63;4.65;;;;;;;27.95;34.30;97587.91;10292592;28;20476;-57
2022/08/09 16:10:21;;;;;;;7.32;4.35;;;;;;;27.72;35.13;97596.75;10283798;28;20077;-58
2022/08/09 16:15:20;;;;;;;5.93;4.07;;;;;;;27.26;37.78;97603.56;10292789;28;20057;-55
2022/08/09 16:20:19;;;;;;;6.28;4.10;;;;;;;26.29;41.74;97622.66;10292268;28;20042;-55
2022/08/09 16:25:18;;;;;;;8.00;4.20;;;;;;;25.35;44.18;97607.44;10292762;28;20036;-57
2022/08/09 16:30:18;;;;;;;7.40;4.57;;;;;;;24.70;45.25;97613.19;10271373;28;20058;-57
2022/08/09 16:35:17;;;;;;;6.93;4.07;;;;;;;24.22;46.69;97600.13;10250834;28;20076;-56
2022/08/09 16:40:18;;;;;;;7.63;4.20;;;;;;;23.91;47.64;97611.63;10279382;28;20072;-57
2022/08/09 16:45:18;;;;;;;9.05;5.10;;;;;;;23.71;48.12;97609.25;10289202;28;20507;-57
2022/08/09 16:50:18;;;;;;;6.82;4.90;;;;;;;23.53;48.52;97617.28;10269510;28;20511;-57
2022/08/09 16:55:17;;;;;;;9.52;5.20;;;;;;;23.45;48.53;97635.38;10293128;28;20070;-57
2022/08/09 17:00:17;;;;;;;40.25;27.92;;;;;;;23.12;50.02;97654.78;10261712;28;20030;-58
2022/08/09 17:05:16;;;;;;;6.55;4.97;;;;;;;22.66;51.60;97657.16;10252464;28;20507;-58
2022/08/09 17:10:16;;;;;;;11.27;5.85;;;;;;;22.30;53.86;97673.13;10266857;28;20516;-57
2022/08/09 17:15:16;;;;;;;11.35;7.35;;;;;;;22.02;55.50;97670.97;10279746;28;20134;-57
2022/08/09 17:20:15;;;;;;;6.43;4.82;;;;;;;22.04;55.41;97679.66;10262689;28;20469;-57
2022/08/09 17:25:14;;;;;;;7.40;5.30;;;;;;;22.10;55.02;97682.00;10279601;28;20073;-57
2022/08/09 17:30:13;;;;;;;7.70;5.13;;;;;;;22.09;56.68;97690.88;10286998;28;20074;-57
2022/08/09 17:35:13;;;;;;;8.10;5.75;;;;;;;22.07;58.94;97696.25;10249279;28;20054;-57
2022/08/09 17:40:12;;;;;;;7.53;5.65;;;;;;;22.04;59.35;97695.50;10275181;28;20064;-55
2022/08/09 17:45:11;;;;;;;11.18;6.07;;;;;;;21.96;60.03;97704.63;10292970;28;20065;-57
2022/08/09 17:50:11;;;;;;;6.53;5.15;;;;;;;21.81;61.07;97693.97;10269059;28;20073;-56
2022/08/09 17:55:10;;;;;;;9.07;5.47;;;;;;;21.60;62.42;97695.81;10257276;28;20073;-57
2022/08/09 18:00:09;;;;;;;10.05;6.03;;;;;;;21.34;63.36;97711.94;10282667;28;20507;-57
2022/08/09 18:05:09;;;;;;;8.23;5.97;;;;;;;21.18;64.40;97720.56;10297322;28;20072;-57
2022/08/09 18:10:09;;;;;;;6.70;5.65;;;;;;;21.05;64.42;97718.44;10270039;28;20081;-56
2022/08/09 18:15:10;;;;;;;7.95;5.45;;;;;;;20.84;65.70;97728.16;10262574;28;20515;-56
2022/08/09 18:20:09;;;;;;;8.90;6.07;;;;;;;20.74;65.54;97749.72;10281509;28;20088;-56
2022/08/09 18:25:09;;;;;;;8.35;5.47;;;;;;;20.64;65.65;97763.28;10283951;28;20061;-56
2022/08/09 18:30:08;;;;;;;7.88;6.22;;;;;;;20.57;66.62;97771.53;10296746;28;20054;-56
2022/08/09 18:35:07;;;;;;;9.95;6.70;;;;;;;20.43;67.69;97780.84;10296382;28;20077;-56
2022/08/09 18:40:07;;;;;;;10.02;6.65;;;;;;;20.39;68.35;97788.91;10296532;28;20515;-56
2022/08/09 18:45:07;;;;;;;12.38;6.38;;;;;;;20.29;69.07;97794.53;10294644;28;20061;-57
2022/08/09 18:50:06;;;;;;;9.80;6.28;;;;;;;20.20;68.95;97801.97;10280911;28;20069;-56
2022/08/09 18:55:06;;;;;;;8.68;6.45;;;;;;;20.14;68.75;97797.78;10269947;28;20069;-57
2022/08/09 19:00:09;;;;;;;9.70;6.43;;;;;;;20.10;68.64;97806.72;10266339;28;20796;-58
2022/08/09 19:05:09;;;;;;;8.18;5.93;;;;;;;20.05;68.38;97806.91;10290278;28;20066;-56
2022/08/09 19:10:09;;;;;;;10.60;6.47;;;;;;;20.00;68.26;97816.75;10263479;28;20074;-56
2022/08/09 19:15:08;;;;;;;7.93;5.75;;;;;;;19.97;68.30;97808.97;10253594;28;20065;-57
2022/08/09 19:20:09;;;;;;;7.68;5.80;;;;;;;19.87;68.41;97799.69;10282835;28;20460;-57
2022/08/09 19:25:09;;;;;;;9.45;5.78;;;;;;;19.82;68.61;97809.56;10293092;28;20069;-57
2022/08/09 19:30:08;;;;;;;11.65;7.10;;;;;;;19.73;68.63;97799.38;10275766;28;20471;-56
2022/08/09 19:35:08;;;;;;;8.32;6.00;;;;;;;19.68;69.35;97817.97;10279923;28;20519;-56
2022/08/09 19:40:07;;;;;;;9.07;6.03;;;;;;;19.63;69.79;97819.91;10287534;28;20100;-56
2022/08/09 19:45:07;;;;;;;8.80;7.13;;;;;;;19.53;70.47;97829.00;10285024;28;20069;-57
2022/08/09 19:50:07;;;;;;;8.35;6.03;;;;;;;19.42;70.77;97817.09;10266055;28;20468;-57
2022/08/09 19:55:06;;;;;;;9.02;7.40;;;;;;;19.40;71.76;97818.06;10270313;28;20072;-59
2022/08/09 20:00:07;;;;;;;13.32;7.32;;;;;;;19.39;72.32;97848.78;10285352;28;20088;-56
2022/08/09 20:05:06;;;;;;;11.20;6.70;;;;;;;19.30;73.61;97871.91;10280971;28;20480;-57
2022/08/09 20:10:07;;;;;;;8.85;6.68;;;;;;;19.12;76.15;97886.56;10272999;28;20894;-57
2022/08/09 20:15:07;;;;;;;9.02;6.82;;;;;;;19.09;76.29;97871.75;10292603;28;20068;-57
2022/08/09 20:20:06;;;;;;;10.60;7.10;;;;;;;19.17;75.71;97855.69;10276744;28;20062;-57
2022/08/09 20:25:06;;;;;;;10.65;6.13;;;;;;;19.24;75.44;97844.06;10274030;28;20492;-56
2022/08/09 20:30:05;;;;;;;7.57;6.40;;;;;;;19.35;74.75;97841.91;10265403;28;20066;-56
2022/08/09 20:35:05;;;;;;;8.82;6.75;;;;;;;19.38;74.33;97836.53;10250953;28;20096;-56
2022/08/09 20:40:05;;;;;;;7.90;6.75;;;;;;;19.47;73.83;97831.88;10278553;28;20061;-57
2022/08/09 20:45:06;;;;;;;10.30;6.47;;;;;;;19.52;73.37;97843.09;10289268;28;20476;-57
2022/08/09 20:50:09;;;;;;;7.68;6.40;;;;;;;19.37;74.03;97845.34;10264133;28;20738;-57
2022/08/09 20:55:10;;;;;;;7.90;6.20;;;;;;;19.29;74.73;97850.00;10265133;28;20064;-57
2022/08/09 21:00:09;;;;;;;8.93;6.50;;;;;;;18.98;75.66;97840.53;10272794;28;20077;-57
2022/08/09 21:05:08;;;;;;;10.63;6.90;;;;;;;19.06;75.49;97856.03;10265247;28;20076;-57
2022/08/09 21:10:09;;;;;;;9.68;6.28;;;;;;;19.09;75.12;97855.09;10264554;28;20077;-57
2022/08/09 21:15:08;;;;;;;10.30;6.78;;;;;;;19.13;74.78;97856.72;10269040;28;20088;-57
2022/08/09 21:20:07;;;;;;;10.48;7.05;;;;;;;19.01;75.13;97837.78;10273696;28;20061;-58
2022/08/09 21:30:26;;;;;;;12.50;7.82;;;;;;;18.99;76.01;97849.28;10295309;28;20117;-57
2022/08/09 21:35:25;;;;;;;10.18;7.10;;;;;;;18.91;76.31;97857.44;10298092;28;20125;-57
2022/08/09 21:40:25;;;;;;;8.00;6.75;;;;;;;18.83;76.76;97848.94;10280393;28;20033;-57
2022/08/09 21:45:25;;;;;;;9.80;7.05;;;;;;;18.77;77.20;97859.66;10293226;28;20062;-57
2022/08/09 21:50:25;;;;;;;8.43;7.30;;;;;;;18.70;77.34;97858.97;10284875;28;20590;-55
2022/08/09 21:55:24;;;;;;;9.60;7.53;;;;;;;18.67;77.66;97850.31;10293975;28;20065;-56
2022/08/09 22:00:32;;;;;;;11.90;7.68;;;;;;;18.63;77.83;97853.94;10284720;28;20125;-57
2022/08/09 22:05:33;;;;;;;17.35;7.72;;;;;;;18.60;77.98;97863.66;10279031;28;20061;-55
2022/08/09 22:10:32;;;;;;;9.82;7.70;;;;;;;18.55;78.59;97859.41;10256220;28;20496;-55
2022/08/09 22:15:31;;;;;;;11.77;7.53;;;;;;;18.47;79.71;97854.41;10258714;28;20057;-55
2022/08/09 22:20:31;;;;;;;11.07;8.48;;;;;;;18.40;80.29;97850.25;10296579;28;20058;-55
2022/08/09 22:25:30;;;;;;;9.65;8.38;;;;;;;18.38;80.55;97860.81;10297148;28;20480;-55
2022/08/09 22:30:28;;;;;;;11.57;8.18;;;;;;;18.37;80.58;97845.13;10297172;28;20476;-55
2022/08/09 22:35:27;;;;;;;13.38;8.27;;;;;;;18.34;81.10;97856.56;10296442;28;20067;-55
2022/08/09 22:40:26;;;;;;;;;;;;;;;18.23;81.54;97847.31;10298990;28;20041;-55
2022/08/09 22:45:25;;;;;;;11.53;7.63;;;;;;;18.18;81.88;97852.69;10299423;28;19941;-55
2022/08/09 22:50:24;;;;;;;10.38;7.07;;;;;;;17.98;82.58;97853.28;10299375;28;20085;-55
2022/08/09 22:55:24;;;;;;;9.40;7.60;;;;;;;17.83;83.68;97849.34;10282259;28;20074;-55
2022/08/09 23:00:23;;;;;;;11.23;8.07;;;;;;;17.67;84.41;97853.25;10297456;28;20519;-55
2022/08/09 23:05:22;;;;;;;12.90;8.60;;;;;;;17.64;84.40;97854.22;10320413;28;20439;-55
2022/08/09 23:10:21;;;;;;;15.38;8.20;;;;;;;17.52;85.08;97859.81;10289032;28;20070;-56
2022/08/09 23:15:21;;;;;;;11.07;8.38;;;;;;;17.45;84.98;97861.72;10263286;28;20478;-56
2022/08/09 23:20:20;;;;;;;10.77;8.32;;;;;;;17.37;85.24;97855.81;10298159;28;20049;-56